12:32
Airports
History
Links
Donate
Help keep this website running!
PayPal
Bitcoin
Information on this page is community maintained and may be outdated or inaccurate and is intended for reference only or PC simulator navigating.
Always use approved charts for navigating.
CB01
Corbeil Bertha Rd
Corbeil Bertha Rd (CB01)
Corbeil, Ontario, Canada
4
Lat/Lng:46° 13' 34.87" N / 79° 17' 20.09" W
46.226353 / -79.288914
Elevation:796'ft 243mMSL
ID / ICAO:CB01
Runways:1
Longest:(17-35) 579.4m 1,901ft Grass
Distance To
Airport ID:
Nearby VORs <50NM
Nearby NDBs
Nearby WeatherUpdated 05-23-17 12:00 GMT
Nearby weather at CYYB, North Bay located 11.4 nautical miles from CB01
Altimeter: 29.85
Visibility: 30.0 statute miles
Wind: 5 knots (210°)
Temp: 8°c 46°f
Humidity: 87.2%

METAR: CYYB 231200Z 21005KT 30SM OVC048 08/06 A2985 RMK SC8 SLP117

(Powered by phpweather)
Runway 17 / 35
Dimensions:579.4 x 24.1m 1901' x 79'ft
Surface:Grass
Runway 17 [A]Runway 35 [B]
Heading:159°TH 339°TH
Lat:
Lng:
46° 13' 43.53"N
79° 17' 24.82"W
46° 13' 26.21"N
79° 17' 15.35"W
User Notes and Comments
Google Map
Nearby Airports
(C) North Bay 11.4 NM
CYYB (WX) NW 326°
4 Nipissing on 654 12.6 NM
CNC7 SW 230°
4 Trout Creek Chalet 18.2 NM
CTC1 SSW 196°
(C) Mattawa (Earl Lake) 26.3 NM
CMA2 ENE 78°
(C) South River-Sundridge 28.0 NM
CPE6 S 185°
4 Arnstein 37.0 NM
CNR9 SW 235°
4 Emsdale 46.8 NM
CNA4 S 183°
VFR Chart
Flight Planning at SkyVector.com